Terminal Aerodrome Forecast
Issued by NWS

Home | Current Version | Previous Version | Text Only | Print | Product List | Glossary On
Versions: 1 2 3 4 5 6 7 8 9 10 11 12 13 14 15 16 17 18 19 20
446
FTUS41 KBOX 221316 AAA
TAFACK
TAF AMD
KACK 221316Z 2213/2312 04005KT P6SM OVC004
     FM221400 36007KT P6SM SCT010
     FM221500 32009KT P6SM BKN250
     FM221700 25011KT P6SM FEW250
     FM222100 25013G25KT P6SM FEW060
     FM230300 29012G27KT P6SM SCT080=

USA.gov is the U.S. government's official web portal to all federal, state and local government web resources and services.